createdAt,value
2022-12-08T00:01:33.425Z,75.08
2022-12-08T00:04:02.570Z,74.80
2022-12-08T00:06:56.547Z,75.47
2022-12-08T00:09:26.918Z,74.10
2022-12-08T00:12:07.721Z,74.69
2022-12-08T00:14:46.101Z,75.38
2022-12-08T00:17:15.874Z,74.34
2022-12-08T00:19:44.036Z,74.94
2022-12-08T00:22:12.848Z,74.67
2022-12-08T00:24:45.604Z,74.42
2022-12-08T00:27:15.227Z,75.73
2022-12-08T00:29:46.140Z,75.82
2022-12-08T00:32:13.698Z,75.74
2022-12-08T00:34:42.655Z,75.83
2022-12-08T00:37:10.122Z,75.02
2022-12-08T00:39:37.683Z,74.67
2022-12-08T00:42:14.419Z,75.85
2022-12-08T00:44:44.294Z,76.32
2022-12-08T00:47:13.236Z,76.24
2022-12-08T00:49:40.817Z,75.66
2022-12-08T00:52:08.562Z,75.28
2022-12-08T00:54:36.385Z,74.46
2022-12-08T00:57:04.067Z,75.65
2022-12-08T00:59:31.614Z,74.84
2022-12-08T01:01:59.151Z,76.05
2022-12-08T01:04:26.675Z,75.83
2022-12-08T01:06:54.124Z,75.53
2022-12-08T01:09:21.696Z,75.59
2022-12-08T01:11:50.585Z,75.00
2022-12-08T01:14:18.142Z,75.54
2022-12-08T01:16:45.821Z,75.56
2022-12-08T01:19:15.587Z,74.50
2022-12-08T01:21:45.031Z,73.96
2022-12-08T01:24:20.474Z,74.49
2022-12-08T01:26:49.524Z,74.36
2022-12-08T01:29:18.013Z,74.63
2022-12-08T01:31:45.535Z,74.27
2022-12-08T01:34:13.197Z,74.56
2022-12-08T01:36:42.188Z,74.72
2022-12-08T01:39:15.406Z,74.12
2022-12-08T01:41:43.868Z,75.71
2022-12-08T01:44:11.348Z,74.82
2022-12-08T01:46:40.798Z,76.03
2022-12-08T01:49:13.609Z,75.01
2022-12-08T01:51:56.405Z,73.49
2022-12-08T01:54:28.798Z,73.89
2022-12-08T01:57:03.560Z,73.45
2022-12-08T01:59:36.243Z,73.76
2022-12-08T02:02:03.982Z,73.68
2022-12-08T02:04:31.522Z,73.13
2022-12-08T02:07:02.506Z,73.77
2022-12-08T02:09:34.067Z,73.90
2022-12-08T02:12:01.576Z,73.25
2022-12-08T02:14:29.152Z,73.69
2022-12-08T02:17:17.784Z,73.91
2022-12-08T02:20:22.427Z,73.17
2022-12-08T02:23:08.812Z,72.71
2022-12-08T02:26:05.288Z,74.03
2022-12-08T02:28:44.527Z,73.95
2022-12-08T02:31:46.253Z,74.41
2022-12-08T02:34:36.478Z,76.71
2022-12-08T02:37:17.301Z,74.60
2022-12-08T02:39:56.820Z,75.53
2022-12-08T02:42:35.184Z,74.84
2022-12-08T02:45:14.745Z,74.83
2022-12-08T02:47:43.433Z,74.48
2022-12-08T02:50:12.201Z,74.37
2022-12-08T02:52:47.802Z,75.34
2022-12-08T02:55:23.037Z,75.58
2022-12-08T02:58:02.441Z,74.72
2022-12-08T03:00:41.314Z,74.63
2022-12-08T03:03:19.318Z,74.67
2022-12-08T03:06:32.914Z,75.34
2022-12-08T03:09:08.671Z,74.91
2022-12-08T03:12:01.146Z,74.38
2022-12-08T03:14:30.867Z,74.30
2022-12-08T03:17:00.121Z,74.17
2022-12-08T03:19:32.999Z,75.27
2022-12-08T03:22:03.510Z,75.40
2022-12-08T03:24:34.997Z,74.67
2022-12-08T03:27:04.332Z,74.83
2022-12-08T03:29:33.080Z,74.19
2022-12-08T03:32:22.759Z,74.43
2022-12-08T03:34:51.628Z,74.48
2022-12-08T03:37:20.190Z,74.36
2022-12-08T03:39:48.352Z,74.96
2022-12-08T03:42:15.823Z,75.37
2022-12-08T03:44:43.314Z,74.52
2022-12-08T03:47:10.772Z,75.36
2022-12-08T03:49:38.536Z,76.23
2022-12-08T03:52:06.013Z,75.58
2022-12-08T03:54:33.578Z,75.49
2022-12-08T03:57:01.087Z,75.28
2022-12-08T03:59:28.799Z,74.67
2022-12-08T04:01:56.347Z,75.23
2022-12-08T04:04:24.034Z,74.81
2022-12-08T04:06:51.540Z,75.58
2022-12-08T04:09:19.178Z,76.49
2022-12-08T04:11:46.686Z,76.84
2022-12-08T04:14:14.296Z,75.41
2022-12-08T04:16:41.979Z,75.86
2022-12-08T04:19:09.535Z,75.33
2022-12-08T04:21:37.077Z,75.75
2022-12-08T04:24:04.731Z,75.96
2022-12-08T04:26:32.271Z,75.96
2022-12-08T04:28:59.715Z,75.64
2022-12-08T04:31:27.353Z,78.28
2022-12-08T04:33:54.902Z,80.97
2022-12-08T04:36:22.476Z,82.53
2022-12-08T04:38:50.053Z,78.53
2022-12-08T04:41:17.556Z,76.49
2022-12-08T04:43:45.068Z,75.60
2022-12-08T04:46:12.886Z,76.11
2022-12-08T04:48:41.371Z,76.47
2022-12-08T04:51:17.101Z,75.08
2022-12-08T04:53:46.855Z,74.99
2022-12-08T04:56:19.180Z,75.46
2022-12-08T04:58:46.746Z,80.52
2022-12-08T05:01:14.832Z,81.55
2022-12-08T05:03:42.425Z,81.97
2022-12-08T05:06:12.675Z,82.08
2022-12-08T05:08:41.491Z,83.11
2022-12-08T05:11:10.636Z,83.34
2022-12-08T05:13:38.178Z,83.62
2022-12-08T05:16:10.753Z,83.75
2022-12-08T05:18:39.990Z,83.83
2022-12-08T05:21:08.485Z,82.62
2022-12-08T05:23:36.287Z,79.51
2022-12-08T05:26:04.119Z,81.96
2022-12-08T05:28:46.868Z,83.04
2022-12-08T05:31:15.665Z,82.82
2022-12-08T05:33:44.800Z,84.11
2022-12-08T05:36:14.481Z,84.01
2022-12-08T05:38:42.975Z,83.88
2022-12-08T05:41:15.054Z,83.37
2022-12-08T05:43:42.523Z,83.50
2022-12-08T05:46:10.432Z,83.44
2022-12-08T05:48:38.315Z,83.20
2022-12-08T05:51:09.499Z,83.73
2022-12-08T05:53:36.898Z,83.57
2022-12-08T05:56:04.692Z,80.51
2022-12-08T05:58:32.271Z,78.15
2022-12-08T06:00:59.713Z,77.80
2022-12-08T06:03:27.235Z,76.36
2022-12-08T06:05:54.948Z,76.22
2022-12-08T06:08:22.548Z,76.19
2022-12-08T06:10:50.164Z,76.30
2022-12-08T06:13:17.695Z,76.13
2022-12-08T06:15:45.256Z,77.81
2022-12-08T06:18:13.366Z,77.48
2022-12-08T06:20:41.006Z,77.04
2022-12-08T06:23:08.486Z,80.43
2022-12-08T06:25:36.171Z,83.44
2022-12-08T06:28:06.148Z,83.41
2022-12-08T06:30:33.906Z,83.73
2022-12-08T06:33:01.396Z,84.35
2022-12-08T06:35:28.844Z,84.58
2022-12-08T06:37:56.435Z,83.94
2022-12-08T06:40:24.042Z,84.72
2022-12-08T06:42:51.466Z,83.98
2022-12-08T06:45:19.011Z,84.16
2022-12-08T06:47:46.509Z,84.06
2022-12-08T06:50:14.861Z,84.85
2022-12-08T06:52:54.189Z,85.03
2022-12-08T06:55:50.831Z,84.49
2022-12-08T06:58:11.844Z,84.15
2022-12-08T07:00:40.488Z,84.32
2022-12-08T07:03:09.355Z,84.20
2022-12-08T07:05:38.262Z,85.72
2022-12-08T07:08:08.304Z,84.58
2022-12-08T07:10:36.301Z,85.04
2022-12-08T07:13:05.775Z,84.11
2022-12-08T07:15:33.799Z,83.73
2022-12-08T07:18:01.285Z,84.56
2022-12-08T07:20:28.929Z,84.93
2022-12-08T07:22:56.425Z,85.67
2022-12-08T07:25:24.142Z,84.70
2022-12-08T07:27:52.691Z,85.01
2022-12-08T07:30:20.601Z,85.42
2022-12-08T07:32:48.049Z,84.59
2022-12-08T07:35:15.628Z,83.43
2022-12-08T07:37:43.113Z,83.84
2022-12-08T07:40:11.362Z,83.98
2022-12-08T07:42:38.776Z,84.78
2022-12-08T07:45:07.650Z,83.88
2022-12-08T07:47:35.172Z,83.37
2022-12-08T07:50:03.004Z,80.04
2022-12-08T07:52:31.028Z,77.69
2022-12-08T07:54:58.537Z,75.98
2022-12-08T07:57:25.996Z,74.17
2022-12-08T07:59:53.452Z,74.18
2022-12-08T08:02:24.996Z,73.85
2022-12-08T08:04:54.323Z,74.35
2022-12-08T08:07:21.858Z,73.39
2022-12-08T08:09:49.444Z,72.78
2022-12-08T08:12:32.904Z,73.24
2022-12-08T08:15:01.877Z,73.66
2022-12-08T08:17:30.152Z,75.81
2022-12-08T08:19:57.817Z,74.16
2022-12-08T08:22:28.589Z,73.93
2022-12-08T08:24:55.985Z,75.62
2022-12-08T08:27:23.484Z,75.13
2022-12-08T08:29:51.757Z,76.02
2022-12-08T08:32:19.783Z,75.72
2022-12-08T08:34:47.187Z,76.92
2022-12-08T08:37:14.864Z,76.37
2022-12-08T08:39:43.138Z,76.18
2022-12-08T08:42:10.622Z,76.42
2022-12-08T08:44:39.009Z,75.51
2022-12-08T08:47:06.615Z,74.72
2022-12-08T08:49:34.153Z,74.38
2022-12-08T08:52:04.740Z,74.18
2022-12-08T08:54:33.129Z,69.12
2022-12-08T08:57:01.529Z,73.69
2022-12-08T08:59:29.104Z,72.23
2022-12-08T09:01:56.767Z,69.77
2022-12-08T09:04:25.686Z,67.66
2022-12-08T09:06:53.298Z,67.42
2022-12-08T09:09:20.959Z,67.25
2022-12-08T09:11:48.706Z,66.48
2022-12-08T09:14:16.227Z,67.55
2022-12-08T09:16:44.127Z,67.48
2022-12-08T09:19:11.582Z,66.73
2022-12-08T09:21:40.186Z,65.87
2022-12-08T09:24:10.543Z,64.49
2022-12-08T09:26:38.053Z,66.08
2022-12-08T09:29:05.607Z,67.13
2022-12-08T09:31:33.383Z,65.31
2022-12-08T09:34:00.957Z,63.25
2022-12-08T09:36:28.514Z,63.21
2022-12-08T09:38:56.237Z,64.29
2022-12-08T09:41:35.917Z,64.63
2022-12-08T09:44:38.902Z,62.02
2022-12-08T09:47:16.242Z,61.82
2022-12-08T09:49:50.616Z,62.50
2022-12-08T09:52:26.600Z,63.13
2022-12-08T09:54:58.873Z,61.89
2022-12-08T09:57:26.974Z,60.50
2022-12-08T10:00:01.209Z,59.67
2022-12-08T10:02:30.493Z,60.02
2022-12-08T10:04:59.319Z,61.05
2022-12-08T10:07:43.724Z,61.84
2022-12-08T10:10:39.667Z,60.36
2022-12-08T10:13:36.559Z,60.13
2022-12-08T10:16:04.129Z,60.68
2022-12-08T10:18:34.049Z,61.67
2022-12-08T10:21:18.819Z,59.86
2022-12-08T10:23:49.991Z,60.61
2022-12-08T10:26:20.128Z,58.50
2022-12-08T10:28:48.766Z,59.08
2022-12-08T10:31:24.829Z,58.80
2022-12-08T10:34:14.208Z,58.90
2022-12-08T10:37:00.787Z,60.27
2022-12-08T10:39:40.106Z,59.35
2022-12-08T10:42:15.626Z,58.72
2022-12-08T10:45:04.288Z,58.67
2022-12-08T10:47:37.750Z,57.64
2022-12-08T10:50:10.478Z,58.76
2022-12-08T10:52:40.283Z,57.42
2022-12-08T10:55:19.734Z,55.22
2022-12-08T10:57:50.860Z,54.55
2022-12-08T11:00:22.034Z,54.21
2022-12-08T11:02:55.847Z,55.58
2022-12-08T11:05:28.076Z,55.37
2022-12-08T11:07:56.724Z,54.04
2022-12-08T11:10:36.927Z,55.19
2022-12-08T11:13:07.340Z,54.46
2022-12-08T11:15:39.483Z,54.91
2022-12-08T11:18:10.484Z,55.77
2022-12-08T11:20:41.807Z,54.66
2022-12-08T11:23:21.193Z,54.53
2022-12-08T11:25:50.627Z,54.05
2022-12-08T11:28:25.424Z,55.61
2022-12-08T11:31:16.354Z,55.64
2022-12-08T11:33:45.690Z,54.40
2022-12-08T11:36:15.630Z,53.95
2022-12-08T11:38:50.554Z,55.22
2022-12-08T11:41:53.584Z,55.45
2022-12-08T11:44:39.127Z,54.75
2022-12-08T11:47:40.646Z,54.51
2022-12-08T11:50:25.685Z,54.08
2022-12-08T11:52:53.170Z,54.84
2022-12-08T11:55:26.741Z,55.97
2022-12-08T11:57:57.192Z,53.92
2022-12-08T12:00:24.769Z,56.06
2022-12-08T12:03:04.653Z,55.30
2022-12-08T12:06:13.225Z,55.15
2022-12-08T12:09:08.946Z,57.95
2022-12-08T12:12:15.911Z,58.74
2022-12-08T12:15:11.443Z,58.10
2022-12-08T12:17:45.054Z,58.94
2022-12-08T12:20:29.649Z,58.13
2022-12-08T12:23:18.259Z,60.42
2022-12-08T12:25:59.263Z,58.17
2022-12-08T12:28:31.645Z,57.34
2022-12-08T12:31:12.230Z,57.07
2022-12-08T12:33:39.827Z,55.64
2022-12-08T12:36:10.055Z,55.89
2022-12-08T12:39:01.526Z,55.26
2022-12-08T12:41:34.514Z,55.03
2022-12-08T12:44:13.935Z,53.91
2022-12-08T12:46:41.431Z,56.83
2022-12-08T12:49:43.549Z,57.63
2022-12-08T12:52:17.008Z,58.21
2022-12-08T12:54:50.433Z,59.00
2022-12-08T12:57:20.689Z,57.87
2022-12-08T12:59:55.239Z,59.03
2022-12-08T13:02:28.938Z,57.21
2022-12-08T13:05:07.237Z,56.75
2022-12-08T13:07:43.691Z,57.19
2022-12-08T13:10:19.777Z,56.49
2022-12-08T13:13:21.795Z,55.47
2022-12-08T13:15:56.903Z,58.08
2022-12-08T13:18:36.350Z,57.28
2022-12-08T13:21:05.785Z,57.56
2022-12-08T13:23:48.647Z,57.08
2022-12-08T13:26:24.772Z,58.08
2022-12-08T13:29:04.160Z,58.01
2022-12-08T13:31:51.621Z,57.68
2022-12-08T13:34:42.283Z,58.06
2022-12-08T13:37:13.462Z,60.22
2022-12-08T13:39:43.438Z,59.27
2022-12-08T13:42:19.561Z,60.51
2022-12-08T13:48:23.289Z,62.49
2022-12-08T13:55:12.954Z,63.46
2022-12-08T13:57:26.875Z,63.24
2022-12-08T13:59:54.438Z,64.11
2022-12-08T14:02:29.875Z,62.27
2022-12-08T14:07:47.396Z,61.41
2022-12-08T14:10:23.278Z,61.04
2022-12-08T14:13:03.144Z,61.19
2022-12-08T14:15:38.157Z,61.95
2022-12-08T14:18:21.301Z,61.81
2022-12-08T14:23:51.183Z,62.51
2022-12-08T14:26:18.642Z,63.53
2022-12-08T14:28:46.484Z,62.53
2022-12-08T14:31:14.622Z,63.79
2022-12-08T14:33:42.999Z,63.66
2022-12-08T14:36:12.626Z,63.28
2022-12-08T14:38:40.170Z,64.21
2022-12-08T14:41:11.526Z,63.73
2022-12-08T14:43:40.944Z,65.21
2022-12-08T14:46:23.113Z,63.80
2022-12-08T14:48:51.108Z,64.31
2022-12-08T14:51:21.486Z,63.91
2022-12-08T14:54:00.120Z,63.22
2022-12-08T14:56:50.366Z,63.18
2022-12-08T14:59:20.824Z,63.13
2022-12-08T15:01:51.450Z,64.44
2022-12-08T15:04:23.489Z,63.91
2022-12-08T15:06:58.525Z,63.05
2022-12-08T15:09:34.896Z,63.45
2022-12-08T15:12:15.777Z,63.38
2022-12-08T15:15:04.559Z,62.39
2022-12-08T15:17:40.587Z,62.49
2022-12-08T15:20:55.543Z,62.62
2022-12-08T15:23:25.602Z,63.41
2022-12-08T15:25:54.538Z,63.76
2022-12-08T15:28:29.658Z,63.88
2022-12-08T15:30:58.334Z,64.03
2022-12-08T15:33:26.565Z,63.44
2022-12-08T15:35:54.183Z,63.96
2022-12-08T15:38:27.121Z,64.71
2022-12-08T15:40:56.434Z,63.09
2022-12-08T15:43:24.003Z,63.27
2022-12-08T15:45:59.138Z,62.97
2022-12-08T15:48:30.401Z,63.84
2022-12-08T15:50:58.670Z,64.26
2022-12-08T15:53:26.160Z,64.82
2022-12-08T15:56:25.929Z,64.18
2022-12-08T15:58:57.944Z,64.46
2022-12-08T16:01:26.778Z,62.61
2022-12-08T16:04:36.891Z,62.76
2022-12-08T16:09:40.725Z,63.74
2022-12-08T16:13:26.869Z,62.74
2022-12-08T16:15:50.101Z,62.98
2022-12-08T16:18:26.812Z,63.83
2022-12-08T16:23:45.003Z,63.92
2022-12-08T16:26:28.566Z,63.27
2022-12-08T16:29:04.104Z,65.02
2022-12-08T16:31:33.715Z,63.66
2022-12-08T16:34:01.419Z,64.35
2022-12-08T16:36:28.940Z,64.99
2022-12-08T16:38:56.481Z,65.10
2022-12-08T16:41:42.390Z,64.18
2022-12-08T16:44:10.365Z,64.26
2022-12-08T16:46:37.808Z,63.96
2022-12-08T16:49:08.565Z,64.73
2022-12-08T16:51:36.120Z,64.92
2022-12-08T16:54:03.632Z,64.50
2022-12-08T16:56:33.498Z,64.60
2022-12-08T16:59:02.316Z,64.58
2022-12-08T17:01:30.487Z,64.68
2022-12-08T17:04:29.686Z,64.89
2022-12-08T17:06:46.430Z,64.00
2022-12-08T17:09:14.092Z,64.65
2022-12-08T17:11:43.552Z,66.16
2022-12-08T17:14:13.296Z,66.17
2022-12-08T17:16:42.292Z,65.70
2022-12-08T17:19:12.189Z,66.30
2022-12-08T17:21:39.673Z,66.34
2022-12-08T17:24:07.325Z,66.50
2022-12-08T17:26:35.404Z,67.55
2022-12-08T17:29:04.495Z,65.37
2022-12-08T17:31:33.091Z,65.78
2022-12-08T17:34:02.934Z,65.88
2022-12-08T17:36:30.445Z,66.68
2022-12-08T17:38:59.706Z,66.08
2022-12-08T17:41:27.658Z,66.49
2022-12-08T17:43:55.691Z,66.67
2022-12-08T17:46:24.341Z,66.99
2022-12-08T17:48:52.262Z,65.62
2022-12-08T17:51:19.988Z,65.09
2022-12-08T17:53:47.834Z,66.81
2022-12-08T17:56:19.075Z,65.91
2022-12-08T17:58:52.644Z,66.28
2022-12-08T18:01:23.496Z,66.43
2022-12-08T18:03:51.717Z,67.18
2022-12-08T18:06:19.616Z,66.97
2022-12-08T18:08:47.686Z,66.30
2022-12-08T18:11:20.632Z,66.25
2022-12-08T18:13:49.970Z,66.14
2022-12-08T18:16:19.753Z,65.93
2022-12-08T18:18:47.672Z,66.33
2022-12-08T18:21:22.855Z,65.38
2022-12-08T18:23:51.251Z,66.44
2022-12-08T18:26:19.052Z,65.01
2022-12-08T18:28:48.328Z,65.17
2022-12-08T18:31:19.521Z,65.91
2022-12-08T18:33:48.478Z,65.93
2022-12-08T18:36:19.132Z,66.05
2022-12-08T18:38:50.503Z,65.30
2022-12-08T18:41:23.332Z,65.29
2022-12-08T18:43:51.644Z,64.62
2022-12-08T18:46:19.442Z,65.13
2022-12-08T18:48:48.850Z,63.43
2022-12-08T18:51:21.575Z,64.37
2022-12-08T18:53:51.880Z,63.66
2022-12-08T18:56:22.164Z,65.16
2022-12-08T18:58:49.772Z,65.36
2022-12-08T19:01:17.872Z,64.74
2022-12-08T19:04:04.747Z,64.45
2022-12-08T19:06:33.400Z,64.54
2022-12-08T19:09:03.249Z,64.58
2022-12-08T19:11:30.813Z,64.05
2022-12-08T19:13:58.477Z,64.78
2022-12-08T19:16:26.352Z,64.10
2022-12-08T19:18:54.039Z,64.21
2022-12-08T19:21:23.950Z,64.29
2022-12-08T19:23:52.685Z,63.88
2022-12-08T19:26:20.163Z,64.10
2022-12-08T19:28:48.159Z,63.24
2022-12-08T19:31:16.438Z,63.42
2022-12-08T19:33:44.367Z,68.53
2022-12-08T19:36:16.857Z,70.10
2022-12-08T19:39:03.219Z,69.39
2022-12-08T19:41:50.468Z,70.44
2022-12-08T19:44:45.521Z,70.89
2022-12-08T19:47:13.475Z,70.53
2022-12-08T19:49:41.414Z,70.45
2022-12-08T19:52:09.691Z,70.98
2022-12-08T19:54:38.208Z,70.02
2022-12-08T19:57:06.036Z,70.29
2022-12-08T19:59:34.008Z,70.96
2022-12-08T20:02:02.025Z,71.30
2022-12-08T20:04:29.578Z,70.59
2022-12-08T20:06:57.719Z,70.59
2022-12-08T20:09:25.828Z,70.79
2022-12-08T20:11:54.787Z,71.14
2022-12-08T20:14:23.321Z,71.56
2022-12-08T20:16:51.363Z,72.65
2022-12-08T20:19:20.335Z,72.25
2022-12-08T20:21:48.838Z,71.49
2022-12-08T20:24:17.165Z,72.05
2022-12-08T20:26:44.956Z,72.07
2022-12-08T20:29:14.787Z,71.17
2022-12-08T20:31:43.265Z,71.77
2022-12-08T20:34:18.856Z,71.87
2022-12-08T20:36:49.437Z,72.35
2022-12-08T20:39:18.729Z,71.85
2022-12-08T20:41:47.945Z,71.75
2022-12-08T20:44:15.701Z,72.13
2022-12-08T20:46:49.081Z,72.36
2022-12-08T20:49:18.177Z,72.64
2022-12-08T20:51:46.615Z,72.69
2022-12-08T20:54:14.190Z,72.83
2022-12-08T20:56:46.592Z,72.87
2022-12-08T20:59:18.170Z,73.27
2022-12-08T21:01:46.280Z,72.42
2022-12-08T21:04:14.278Z,73.81
2022-12-08T21:06:42.173Z,73.00
2022-12-08T21:09:10.580Z,73.31
2022-12-08T21:11:38.784Z,73.39
2022-12-08T21:14:06.849Z,72.36
2022-12-08T21:16:34.689Z,73.46
2022-12-08T21:19:02.404Z,72.48
2022-12-08T21:21:30.070Z,73.43
2022-12-08T21:23:57.954Z,73.23
2022-12-08T21:26:26.415Z,74.52
2022-12-08T21:28:58.504Z,72.77
2022-12-08T21:31:29.377Z,72.78
2022-12-08T21:33:58.249Z,73.64
2022-12-08T21:36:25.712Z,73.81
2022-12-08T21:39:00.694Z,73.48
2022-12-08T21:41:48.313Z,73.50
2022-12-08T21:44:20.141Z,73.56
2022-12-08T21:46:47.910Z,73.97
2022-12-08T21:49:16.370Z,73.25
2022-12-08T21:51:44.104Z,73.31
2022-12-08T21:54:18.363Z,73.30
2022-12-08T21:56:47.723Z,74.54
2022-12-08T21:59:16.399Z,74.13
2022-12-08T22:01:44.510Z,73.27
2022-12-08T22:04:15.955Z,73.54
2022-12-08T22:06:43.584Z,73.97
2022-12-08T22:09:13.482Z,74.18
2022-12-08T22:11:43.195Z,74.18
2022-12-08T22:14:14.814Z,74.03
2022-12-08T22:16:43.983Z,73.88
2022-12-08T22:19:12.647Z,70.58
2022-12-08T22:21:41.703Z,68.75
2022-12-08T22:24:09.508Z,68.74
2022-12-08T22:26:37.114Z,69.00
2022-12-08T22:29:04.835Z,70.12
2022-12-08T22:31:32.915Z,73.08
2022-12-08T22:34:00.474Z,74.68
2022-12-08T22:36:28.269Z,74.76
2022-12-08T22:38:56.001Z,74.31
2022-12-08T22:41:23.844Z,74.58
2022-12-08T22:43:51.421Z,74.73
2022-12-08T22:46:24.959Z,74.35
2022-12-08T22:48:54.502Z,74.06
2022-12-08T22:51:22.128Z,76.64
2022-12-08T22:53:50.383Z,74.76
2022-12-08T22:56:19.307Z,75.84
2022-12-08T22:58:47.304Z,75.37
2022-12-08T23:01:29.580Z,76.09
2022-12-08T23:03:58.406Z,74.91
2022-12-08T23:06:30.314Z,75.19
2022-12-08T23:08:59.212Z,74.73
2022-12-08T23:11:29.712Z,76.16
2022-12-08T23:14:01.056Z,75.94
2022-12-08T23:16:29.034Z,76.10
2022-12-08T23:18:56.999Z,75.86
2022-12-08T23:21:24.466Z,75.74
2022-12-08T23:23:52.024Z,75.77
2022-12-08T23:26:27.087Z,76.33
2022-12-08T23:28:56.839Z,75.81
2022-12-08T23:31:25.552Z,76.96
2022-12-08T23:33:53.451Z,77.58
2022-12-08T23:36:23.087Z,76.63
2022-12-08T23:38:50.573Z,76.83
2022-12-08T23:41:18.021Z,75.23
2022-12-08T23:43:47.385Z,76.27
2022-12-08T23:46:16.119Z,76.80
2022-12-08T23:48:44.328Z,76.38
2022-12-08T23:51:12.622Z,77.30
2022-12-08T23:53:40.712Z,77.01
2022-12-08T23:56:11.171Z,77.89
2022-12-08T23:58:39.515Z,78.40
